Time;durP1;ratioP1;P1;durP2;ratioP2;P2;SDS_P1;SDS_P2;PMS_P1;PMS_P2;Temp;Humidity;BMP_temperature;BMP_pressure;BME280_temperature;BME280_humidity;BME280_pressure;Samples;Min_cycle;Max_cycle;Signal;HPM_P1;HPM_P2
2024/01/21 00:00:36;;;;;;;;;;;;;;;;;;5066445;28;20461;-69
2024/01/21 00:03:04;;;;;;;;;;;;;;;;;;5073928;28;19932;-70
2024/01/21 00:05:30;;;;;;;;;;;;;;;;;;5054239;28;19928;-73
2024/01/21 00:07:57;;;;;;;;;;;;;;;;;;5069107;28;19932;-70
2024/01/21 00:10:23;;;;;;;;;;;;;;;;;;5076152;28;19954;-70
2024/01/21 00:12:49;;;;;;;;;;;;;;;;;;5073528;28;19972;-70
2024/01/21 00:15:16;;;;;;;;;;;;;;;;;;5069690;28;19970;-70
2024/01/21 00:17:42;;;;;;;;;;;;;;;;;;5070655;28;20366;-69
2024/01/21 00:20:08;;;;;;;;;;;;;;;;;;5075163;28;19925;-70
2024/01/21 00:22:35;;;;;;;;;;;;;;;;;;5072037;28;19931;-70
2024/01/21 00:25:02;;;;;;;;;;;;;;;;;;5061052;28;20282;-69
2024/01/21 00:27:28;;;;;;;;;;;;;;;;;;5074081;28;20369;-69
2024/01/21 00:29:54;;;;;;;;;;;;;;;;;;5070680;28;20011;-72
2024/01/21 00:32:21;;;;;;;;;;;;;;;;;;5073984;28;19931;-70
2024/01/21 00:34:47;;;;;;;;;;;;;;;;;;5071017;28;20391;-70
2024/01/21 00:37:13;;;;;;;;;;;;;;;;;;5066242;28;19924;-71
2024/01/21 00:39:40;;;;;;;;;;;;;;;;;;5073266;28;20436;-71
2024/01/21 00:42:06;;;;;;;;;;;;;;;;;;5068491;28;19928;-70
2024/01/21 00:44:34;;;;;;;;;;;;;;;;;;5073682;28;19988;-71
2024/01/21 00:47:00;;;;;;;;;;;;;;;;;;5071089;28;19931;-72
2024/01/21 00:49:26;;;;;;;;;;;;;;;;;;5068731;28;20011;-69
2024/01/21 00:51:53;;;;;;;;;;;;;;;;;;5084619;28;19940;-71
2024/01/21 00:54:19;;;;;;;;;;;;;;;;;;5068875;28;19931;-71
2024/01/21 00:56:46;;;;;;;;;;;;;;;;;;5070612;28;20470;-70
2024/01/21 00:59:12;;;;;;;;;;;;;;;;;;5083436;28;19932;-70
2024/01/21 01:01:39;;;;;;;;;;;;;;;;;;5079444;28;19925;-69
2024/01/21 01:04:05;;;;;;;;;;;;;;;;;;5081103;28;20035;-69
2024/01/21 01:06:32;;;;;;;;;;;;;;;;;;5083114;28;19928;-69
2024/01/21 01:08:58;;;;;;;;;;;;;;;;;;5078190;28;20293;-69
2024/01/21 01:11:25;;;;;;;;;;;;;;;;;;5073610;28;19925;-69
2024/01/21 01:13:51;;;;;;;;;;;;;;;;;;5077643;28;19931;-71
2024/01/21 01:16:17;;;;;;;;;;;;;;;;;;5075748;28;19924;-69
2024/01/21 01:18:44;;;;;;;;;;;;;;;;;;5073169;28;19925;-71
2024/01/21 01:21:10;;;;;;;;;;;;;;;;;;5076852;28;19932;-69
2024/01/21 01:23:37;;;;;;;;;;;;;;;;;;5084475;28;20385;-70
2024/01/21 01:26:03;;;;;;;;;;;;;;;;;;5080767;28;19925;-70
2024/01/21 01:28:31;;;;;;;;;;;;;;;;;;5078230;28;19939;-74
2024/01/21 01:30:57;;;;;;;;;;;;;;;;;;5067200;28;19925;-71
2024/01/21 01:33:24;;;;;;;;;;;;;;;;;;5083028;28;19924;-69
2024/01/21 01:35:51;;;;;;;;;;;;;;;;;;5075849;28;19929;-72
2024/01/21 01:38:17;;;;;;;;;;;;;;;;;;5063651;28;19928;-71
2024/01/21 01:40:43;;;;;;;;;;;;;;;;;;5074594;28;19938;-70
2024/01/21 01:43:10;;;;;;;;;;;;;;;;;;5063576;28;20301;-70
2024/01/21 01:45:37;;;;;;;;;;;;;;;;;;5076188;28;20026;-70
2024/01/21 01:48:03;;;;;;;;;;;;;;;;;;5063324;28;19967;-71
2024/01/21 01:50:30;;;;;;;;;;;;;;;;;;5079734;28;19928;-69
2024/01/21 01:52:56;;;;;;;;;;;;;;;;;;5068823;28;19944;-71
2024/01/21 01:55:22;;;;;;;;;;;;;;;;;;5073862;28;20002;-70
2024/01/21 01:57:49;;;;;;;;;;;;;;;;;;5070398;28;20294;-68
2024/01/21 02:00:15;;;;;;;;;;;;;;;;;;5066516;28;19929;-72
2024/01/21 02:02:41;;;;;;;;;;;;;;;;;;5081419;28;19931;-70
2024/01/21 02:05:08;;;;;;;;;;;;;;;;;;5068973;28;19934;-70
2024/01/21 02:07:34;;;;;;;;;;;;;;;;;;5073886;28;19963;-70
2024/01/21 02:10:01;;;;;;;;;;;;;;;;;;5062349;28;19929;-70
2024/01/21 02:12:28;;;;;;;;;;;;;;;;;;5074560;28;19932;-71
2024/01/21 02:14:54;;;;;;;;;;;;;;;;;;5070035;28;20377;-70
2024/01/21 02:17:20;;;;;;;;;;;;;;;;;;5071364;28;19924;-71
2024/01/21 02:19:47;;;;;;;;;;;;;;;;;;5073091;28;19936;-71
2024/01/21 02:22:13;;;;;;;;;;;;;;;;;;5070664;28;19935;-72
2024/01/21 02:24:40;;;;;;;;;;;;;;;;;;5062450;28;19991;-70
2024/01/21 02:27:06;;;;;;;;;;;;;;;;;;5080656;28;19934;-70
2024/01/21 02:29:32;;;;;;;;;;;;;;;;;;5069301;28;19928;-69
2024/01/21 02:31:59;;;;;;;;;;;;;;;;;;5073190;28;19928;-70
2024/01/21 02:34:25;;;;;;;;;;;;;;;;;;5064964;28;19924;-70
2024/01/21 02:36:51;;;;;;;;;;;;;;;;;;5069590;28;20446;-70
2024/01/21 02:39:18;;;;;;;;;;;;;;;;;;5076135;28;19931;-70
2024/01/21 02:41:44;;;;;;;;;;;;;;;;;;5067402;28;19936;-70
2024/01/21 02:44:11;;;;;;;;;;;;;;;;;;5077108;28;20062;-71
2024/01/21 02:46:37;;;;;;;;;;;;;;;;;;5078398;28;19929;-71
2024/01/21 02:49:03;;;;;;;;;;;;;;;;;;5084399;28;19928;-70
2024/01/21 02:51:30;;;;;;;;;;;;;;;;;;5055354;28;20027;-70
2024/01/21 02:53:57;;;;;;;;;;;;;;;;;;5072029;28;19925;-70
2024/01/21 02:56:23;;;;;;;;;;;;;;;;;;5086015;28;19936;-71
2024/01/21 02:58:50;;;;;;;;;;;;;;;;;;5077929;28;19932;-71
2024/01/21 03:01:16;;;;;;;;;;;;;;;;;;5074138;28;19930;-71
2024/01/21 03:03:42;;;;;;;;;;;;;;;;;;5073661;28;19997;-71
2024/01/21 03:06:09;;;;;;;;;;;;;;;;;;5081271;28;19929;-71
2024/01/21 03:08:35;;;;;;;;;;;;;;;;;;5073202;28;20266;-72
2024/01/21 03:11:02;;;;;;;;;;;;;;;;;;5072725;28;19933;-71
2024/01/21 03:13:28;;;;;;;;;;;;;;;;;;5077329;28;19930;-71
2024/01/21 03:15:55;;;;;;;;;;;;;;;;;;5080570;28;20315;-70
2024/01/21 03:18:21;;;;;;;;;;;;;;;;;;5077626;28;19924;-69
2024/01/21 03:20:48;;;;;;;;;;;;;;;;;;5075346;28;20350;-70
2024/01/21 03:23:14;;;;;;;;;;;;;;;;;;5080561;28;19924;-71
2024/01/21 03:25:40;;;;;;;;;;;;;;;;;;5069183;28;19931;-71
2024/01/21 03:28:08;;;;;;;;;;;;;;;;;;5067875;28;19928;-70
2024/01/21 03:30:34;;;;;;;;;;;;;;;;;;5070633;28;19929;-71
2024/01/21 03:33:01;;;;;;;;;;;;;;;;;;5063207;28;19959;-72
2024/01/21 03:35:27;;;;;;;;;;;;;;;;;;5075783;28;19959;-70
2024/01/21 03:37:53;;;;;;;;;;;;;;;;;;5065490;28;20019;-70
2024/01/21 03:40:20;;;;;;;;;;;;;;;;;;5071000;28;20035;-71
2024/01/21 03:42:47;;;;;;;;;;;;;;;;;;5064505;28;19947;-71
2024/01/21 03:45:14;;;;;;;;;;;;;;;;;;5064145;28;20278;-70
2024/01/21 03:47:40;;;;;;;;;;;;;;;;;;5077731;28;19928;-70
2024/01/21 03:50:07;;;;;;;;;;;;;;;;;;5066004;28;19982;-70
2024/01/21 03:52:33;;;;;;;;;;;;;;;;;;5066406;28;19932;-72
2024/01/21 03:55:01;;;;;;;;;;;;;;;;;;5074962;28;19928;-70
2024/01/21 03:57:28;;;;;;;;;;;;;;;;;;5073443;28;20443;-70
2024/01/21 03:59:54;;;;;;;;;;;;;;;;;;5069416;28;19924;-72
2024/01/21 04:02:22;;;;;;;;;;;;;;;;;;5071352;28;19931;-70
2024/01/21 04:04:48;;;;;;;;;;;;;;;;;;5066248;28;19982;-71
2024/01/21 04:07:15;;;;;;;;;;;;;;;;;;5072434;28;19928;-70
2024/01/21 04:09:41;;;;;;;;;;;;;;;;;;5078746;28;20374;-72
2024/01/21 04:12:07;;;;;;;;;;;;;;;;;;5082487;28;19974;-71
2024/01/21 04:14:34;;;;;;;;;;;;;;;;;;5065087;28;19929;-70
2024/01/21 04:17:00;;;;;;;;;;;;;;;;;;5079596;28;19935;-69
2024/01/21 04:19:27;;;;;;;;;;;;;;;;;;5060970;28;19964;-71
2024/01/21 04:21:53;;;;;;;;;;;;;;;;;;5066383;28;19932;-71
2024/01/21 04:24:19;;;;;;;;;;;;;;;;;;5077438;28;19990;-70
2024/01/21 04:26:46;;;;;;;;;;;;;;;;;;5070249;28;19990;-70
2024/01/21 04:29:12;;;;;;;;;;;;;;;;;;5079470;28;19930;-70
2024/01/21 04:31:38;;;;;;;;;;;;;;;;;;5063594;28;19925;-71
2024/01/21 04:34:05;;;;;;;;;;;;;;;;;;5076513;28;20326;-69
2024/01/21 04:36:31;;;;;;;;;;;;;;;;;;5076058;28;19978;-70
2024/01/21 04:38:58;;;;;;;;;;;;;;;;;;5083802;28;19924;-72
2024/01/21 04:41:24;;;;;;;;;;;;;;;;;;5074433;28;20027;-70
2024/01/21 04:43:50;;;;;;;;;;;;;;;;;;5076500;28;19934;-70
2024/01/21 04:46:17;;;;;;;;;;;;;;;;;;5079177;28;19925;-71
2024/01/21 04:48:43;;;;;;;;;;;;;;;;;;5083564;28;19931;-70
2024/01/21 04:51:13;;;;;;;;;;;;;;;;;;5081418;28;19924;-70
2024/01/21 04:53:40;;;;;;;;;;;;;;;;;;5068941;28;20385;-70
2024/01/21 04:56:06;;;;;;;;;;;;;;;;;;5079098;28;19929;-71
2024/01/21 04:58:33;;;;;;;;;;;;;;;;;;5060547;28;20024;-71
2024/01/21 05:00:59;;;;;;;;;;;;;;;;;;5085025;28;20297;-70
2024/01/21 05:03:26;;;;;;;;;;;;;;;;;;5069273;28;20293;-72
2024/01/21 05:05:52;;;;;;;;;;;;;;;;;;5069926;28;19928;-70
2024/01/21 05:08:19;;;;;;;;;;;;;;;;;;5084851;28;20021;-71
2024/01/21 05:10:45;;;;;;;;;;;;;;;;;;5082246;28;20018;-71
2024/01/21 05:13:12;;;;;;;;;;;;;;;;;;5079337;28;19924;-70
2024/01/21 05:15:38;;;;;;;;;;;;;;;;;;5065831;28;19960;-71
2024/01/21 05:18:05;;;;;;;;;;;;;;;;;;5073896;28;19929;-71
2024/01/21 05:20:31;;;;;;;;;;;;;;;;;;5077186;28;19928;-70
2024/01/21 05:22:59;;;;;;;;;;;;;;;;;;5070295;28;19925;-72
2024/01/21 05:25:25;;;;;;;;;;;;;;;;;;5081303;28;19924;-70
2024/01/21 05:27:51;;;;;;;;;;;;;;;;;;5072263;28;20026;-70
2024/01/21 05:30:18;;;;;;;;;;;;;;;;;;5083971;28;20023;-70
2024/01/21 05:32:46;;;;;;;;;;;;;;;;;;5069372;28;19930;-70
2024/01/21 05:35:12;;;;;;;;;;;;;;;;;;5083653;28;20580;-70
2024/01/21 05:37:39;;;;;;;;;;;;;;;;;;5073350;28;19929;-71
2024/01/21 05:40:05;;;;;;;;;;;;;;;;;;5063647;28;20388;-71
2024/01/21 05:42:31;;;;;;;;;;;;;;;;;;5065925;28;19985;-70
2024/01/21 05:44:58;;;;;;;;;;;;;;;;;;5061403;28;19981;-71
2024/01/21 05:47:24;;;;;;;;;;;;;;;;;;5069741;28;19924;-70
2024/01/21 05:49:50;;;;;;;;;;;;;;;;;;5071145;28;19935;-70
2024/01/21 05:52:17;;;;;;;;;;;;;;;;;;5073804;28;20016;-71
2024/01/21 05:54:43;;;;;;;;;;;;;;;;;;5062530;28;19946;-71
2024/01/21 05:57:10;;;;;;;;;;;;;;;;;;5078297;28;19932;-70
2024/01/21 05:59:36;;;;;;;;;;;;;;;;;;5071616;28;20076;-72
2024/01/21 06:02:02;;;;;;;;;;;;;;;;;;5077044;28;19932;-70
2024/01/21 06:04:29;;;;;;;;;;;;;;;;;;5066039;28;19929;-71
2024/01/21 06:06:55;;;;;;;;;;;;;;;;;;5079150;28;19925;-70
2024/01/21 06:09:22;;;;;;;;;;;;;;;;;;5070161;28;20360;-71
2024/01/21 06:11:48;;;;;;;;;;;;;;;;;;5077059;28;19931;-70
2024/01/21 06:14:15;;;;;;;;;;;;;;;;;;5074442;28;19928;-70
2024/01/21 06:16:41;;;;;;;;;;;;;;;;;;5066314;28;19924;-71
2024/01/21 06:19:08;;;;;;;;;;;;;;;;;;5074183;28;20373;-72
2024/01/21 06:21:34;;;;;;;;;;;;;;;;;;5073183;28;19994;-72
2024/01/21 06:24:01;;;;;;;;;;;;;;;;;;5078795;28;19992;-71
2024/01/21 06:26:27;;;;;;;;;;;;;;;;;;5076617;28;20408;-71
2024/01/21 06:28:54;;;;;;;;;;;;;;;;;;5078297;28;20411;-71
2024/01/21 06:31:20;;;;;;;;;;;;;;;;;;5075272;28;19990;-71
2024/01/21 06:33:46;;;;;;;;;;;;;;;;;;5075104;28;19925;-70
2024/01/21 06:36:13;;;;;;;;;;;;;;;;;;5074185;28;20002;-69
2024/01/21 06:38:39;;;;;;;;;;;;;;;;;;5081420;28;19924;-69
2024/01/21 06:41:06;;;;;;;;;;;;;;;;;;5076000;28;19932;-70
2024/01/21 06:43:32;;;;;;;;;;;;;;;;;;5080350;28;19924;-71
2024/01/21 06:45:58;;;;;;;;;;;;;;;;;;5071873;28;19925;-71
2024/01/21 06:48:25;;;;;;;;;;;;;;;;;;5079377;28;20261;-71
2024/01/21 06:50:53;;;;;;;;;;;;;;;;;;5070075;28;20389;-70
2024/01/21 06:53:19;;;;;;;;;;;;;;;;;;5086937;28;19931;-70
2024/01/21 06:55:46;;;;;;;;;;;;;;;;;;5068771;28;19936;-70
2024/01/21 06:58:12;;;;;;;;;;;;;;;;;;5077088;28;19925;-71
2024/01/21 07:00:39;;;;;;;;;;;;;;;;;;5052174;28;19931;-71
2024/01/21 07:03:05;;;;;;;;;;;;;;;;;;5077604;28;20031;-72
2024/01/21 07:05:32;;;;;;;;;;;;;;;;;;5065028;28;20436;-71
2024/01/21 07:07:58;;;;;;;;;;;;;;;;;;5076584;28;20022;-71
2024/01/21 07:10:25;;;;;;;;;;;;;;;;;;5072358;28;19948;-71
2024/01/21 07:12:51;;;;;;;;;;;;;;;;;;5080578;28;20480;-71
2024/01/21 07:15:17;;;;;;;;;;;;;;;;;;5063417;28;20401;-70
2024/01/21 07:17:44;;;;;;;;;;;;;;;;;;5068860;28;19928;-71
2024/01/21 07:20:12;;;;;;;;;;;;;;;;;;5080629;28;20239;-70
2024/01/21 07:22:38;;;;;;;;;;;;;;;;;;5080402;28;19925;-71
2024/01/21 07:25:05;;;;;;;;;;;;;;;;;;5079463;28;20019;-70
2024/01/21 07:27:34;;;;;;;;;;;;;;;;;;5067902;28;19924;-71
2024/01/21 07:30:00;;;;;;;;;;;;;;;;;;5076998;28;20701;-71
2024/01/21 07:32:27;;;;;;;;;;;;;;;;;;5073829;28;19989;-71
2024/01/21 07:34:53;;;;;;;;;;;;;;;;;;5078381;28;20339;-71
2024/01/21 07:37:20;;;;;;;;;;;;;;;;;;5065821;28;19928;-72
2024/01/21 07:39:46;;;;;;;;;;;;;;;;;;5079056;28;20403;-70
2024/01/21 07:42:12;;;;;;;;;;;;;;;;;;5069981;28;20417;-71
2024/01/21 07:44:39;;;;;;;;;;;;;;;;;;5059071;28;20118;-71
2024/01/21 07:47:05;;;;;;;;;;;;;;;;;;5066329;28;19928;-72
2024/01/21 07:49:31;;;;;;;;;;;;;;;;;;5072943;28;19924;-70
2024/01/21 07:51:58;;;;;;;;;;;;;;;;;;5078973;28;19925;-70
2024/01/21 07:54:24;;;;;;;;;;;;;;;;;;5075767;28;19924;-71
2024/01/21 07:56:51;;;;;;;;;;;;;;;;;;5068190;28;19924;-71
2024/01/21 07:59:17;;;;;;;;;;;;;;;;;;5076034;28;20307;-71
2024/01/21 08:01:43;;;;;;;;;;;;;;;;;;5077217;28;19929;-70
2024/01/21 08:04:10;;;;;;;;;;;;;;;;;;5081069;28;19925;-71
2024/01/21 08:06:36;;;;;;;;;;;;;;;;;;5074748;28;19978;-70
2024/01/21 08:09:03;;;;;;;;;;;;;;;;;;5069824;28;20032;-71
2024/01/21 08:11:30;;;;;;;;;;;;;;;;;;5079319;28;20501;-70
2024/01/21 08:13:56;;;;;;;;;;;;;;;;;;5075582;28;20414;-71
2024/01/21 08:16:22;;;;;;;;;;;;;;;;;;5078539;28;19925;-71
2024/01/21 08:18:48;;;;;;;;;;;;;;;;;;5074685;28;19925;-72
2024/01/21 08:21:15;;;;;;;;;;;;;;;;;;5081025;28;19936;-72
2024/01/21 08:23:41;;;;;;;;;;;;;;;;;;5088847;28;19924;-71
2024/01/21 08:26:08;;;;;;;;;;;;;;;;;;5087466;28;19924;-73
2024/01/21 08:28:34;;;;;;;;;;;;;;;;;;5077604;28;19962;-72
2024/01/21 08:31:00;;;;;;;;;;;;;;;;;;5076765;28;19925;-73
2024/01/21 08:33:27;;;;;;;;;;;;;;;;;;5076156;28;19924;-72
2024/01/21 08:35:53;;;;;;;;;;;;;;;;;;5079872;28;19994;-72
2024/01/21 08:38:20;;;;;;;;;;;;;;;;;;5079142;28;19931;-71
2024/01/21 08:40:46;;;;;;;;;;;;;;;;;;5072659;28;19932;-71
2024/01/21 08:43:12;;;;;;;;;;;;;;;;;;5083269;28;19924;-71
2024/01/21 08:45:39;;;;;;;;;;;;;;;;;;5080558;28;19935;-73
2024/01/21 08:48:05;;;;;;;;;;;;;;;;;;5080875;28;19928;-72
2024/01/21 08:50:31;;;;;;;;;;;;;;;;;;5075678;28;19929;-71
2024/01/21 08:52:58;;;;;;;;;;;;;;;;;;5084619;28;19935;-71
2024/01/21 08:55:25;;;;;;;;;;;;;;;;;;5077903;28;19974;-72
2024/01/21 08:57:51;;;;;;;;;;;;;;;;;;5079848;28;20051;-72
2024/01/21 09:00:17;;;;;;;;;;;;;;;;;;5077115;28;19931;-72
2024/01/21 09:02:44;;;;;;;;;;;;;;;;;;5075887;28;19928;-72
2024/01/21 09:05:10;;;;;;;;;;;;;;;;;;5080160;28;19931;-71
2024/01/21 09:07:37;;;;;;;;;;;;;;;;;;5061319;28;19929;-72
2024/01/21 09:10:04;;;;;;;;;;;;;;;;;;5071665;28;19939;-73
2024/01/21 09:12:30;;;;;;;;;;;;;;;;;;5075942;28;19924;-72
2024/01/21 09:14:57;;;;;;;;;;;;;;;;;;5080172;28;20363;-72
2024/01/21 09:17:23;;;;;;;;;;;;;;;;;;5074028;28;20404;-72
2024/01/21 09:19:50;;;;;;;;;;;;;;;;;;5072413;28;19928;-72
2024/01/21 09:22:16;;;;;;;;;;;;;;;;;;5072194;28;19936;-73
2024/01/21 09:24:43;;;;;;;;;;;;;;;;;;5085993;28;20339;-73
2024/01/21 09:27:09;;;;;;;;;;;;;;;;;;5076891;28;19925;-71
2024/01/21 09:29:36;;;;;;;;;;;;;;;;;;5077493;28;20026;-71
2024/01/21 09:32:02;;;;;;;;;;;;;;;;;;5066682;28;19924;-72
2024/01/21 09:34:29;;;;;;;;;;;;;;;;;;5082173;28;20047;-73
2024/01/21 09:36:55;;;;;;;;;;;;;;;;;;5082384;28;19924;-73
2024/01/21 09:39:22;;;;;;;;;;;;;;;;;;5071990;28;19974;-73
2024/01/21 09:41:52;;;;;;;;;;;;;;;;;;5071228;28;20006;-75
2024/01/21 09:44:18;;;;;;;;;;;;;;;;;;5069887;28;19924;-71
2024/01/21 09:46:44;;;;;;;;;;;;;;;;;;5067258;28;19928;-72
2024/01/21 09:49:11;;;;;;;;;;;;;;;;;;5068491;28;19978;-74
2024/01/21 09:51:38;;;;;;;;;;;;;;;;;;5078731;28;19931;-73
2024/01/21 09:54:06;;;;;;;;;;;;;;;;;;5078906;28;20038;-72
2024/01/21 09:56:33;;;;;;;;;;;;;;;;;;5085987;28;20011;-73
2024/01/21 09:58:59;;;;;;;;;;;;;;;;;;5072103;28;19928;-73
2024/01/21 10:01:25;;;;;;;;;;;;;;;;;;5073204;28;19935;-72
2024/01/21 10:03:52;;;;;;;;;;;;;;;;;;5074319;28;19925;-73
2024/01/21 10:06:21;;;;;;;;;;;;;;;;;;5085162;28;20388;-72
2024/01/21 10:08:49;;;;;;;;;;;;;;;;;;5068641;28;19924;-73
2024/01/21 10:11:15;;;;;;;;;;;;;;;;;;5070424;28;19924;-73
2024/01/21 10:13:42;;;;;;;;;;;;;;;;;;5074107;28;19928;-72
2024/01/21 10:16:10;;;;;;;;;;;;;;;;;;5086124;28;19928;-73
2024/01/21 10:18:36;;;;;;;;;;;;;;;;;;5071977;28;19978;-74
2024/01/21 10:21:03;;;;;;;;;;;;;;;;;;5070896;28;20431;-75
2024/01/21 10:23:29;;;;;;;;;;;;;;;;;;5075542;28;19928;-73
2024/01/21 10:25:55;;;;;;;;;;;;;;;;;;5076170;28;19924;-73
2024/01/21 10:28:22;;;;;;;;;;;;;;;;;;5078283;28;19964;-73
2024/01/21 10:30:48;;;;;;;;;;;;;;;;;;5069558;28;19931;-73
2024/01/21 10:33:15;;;;;;;;;;;;;;;;;;5068418;28;19925;-74
2024/01/21 10:35:42;;;;;;;;;;;;;;;;;;5074027;28;19931;-73
2024/01/21 10:38:08;;;;;;;;;;;;;;;;;;5086204;28;20036;-75
2024/01/21 10:40:43;;;;;;;;;;;;;;;;;;5064659;28;19924;-73
2024/01/21 10:43:10;;;;;;;;;;;;;;;;;;5076826;28;20397;-73
2024/01/21 10:45:36;;;;;;;;;;;;;;;;;;5078583;28;19935;-73
2024/01/21 10:48:02;;;;;;;;;;;;;;;;;;5087403;28;20420;-74
2024/01/21 10:50:29;;;;;;;;;;;;;;;;;;5072280;28;19977;-75
2024/01/21 10:52:55;;;;;;;;;;;;;;;;;;5070792;28;20019;-75
2024/01/21 10:55:22;;;;;;;;;;;;;;;;;;5070597;28;19931;-73
2024/01/21 10:57:48;;;;;;;;;;;;;;;;;;5076537;28;19924;-74
2024/01/21 11:00:16;;;;;;;;;;;;;;;;;;5061496;28;19974;-74
2024/01/21 11:02:42;;;;;;;;;;;;;;;;;;5073590;28;20345;-74
2024/01/21 11:05:08;;;;;;;;;;;;;;;;;;5076654;28;19938;-74
2024/01/21 11:07:35;;;;;;;;;;;;;;;;;;5082669;28;20433;-73
2024/01/21 11:10:01;;;;;;;;;;;;;;;;;;5073213;28;20473;-74
2024/01/21 11:12:28;;;;;;;;;;;;;;;;;;5069507;28;20074;-73
2024/01/21 11:14:55;;;;;;;;;;;;;;;;;;5060303;28;19978;-73
2024/01/21 11:17:23;;;;;;;;;;;;;;;;;;5073013;28;19928;-75
2024/01/21 11:19:50;;;;;;;;;;;;;;;;;;5073928;28;20044;-74
2024/01/21 11:22:16;;;;;;;;;;;;;;;;;;5074234;28;19925;-74
2024/01/21 11:24:43;;;;;;;;;;;;;;;;;;5079226;28;20019;-75
2024/01/21 11:27:09;;;;;;;;;;;;;;;;;;5072284;28;19924;-75
2024/01/21 11:29:35;;;;;;;;;;;;;;;;;;5085751;28;19924;-73
2024/01/21 11:32:02;;;;;;;;;;;;;;;;;;5062615;28;19938;-73
2024/01/21 11:34:28;;;;;;;;;;;;;;;;;;5073325;28;19924;-75
2024/01/21 11:36:55;;;;;;;;;;;;;;;;;;5072848;28;19935;-73
2024/01/21 11:39:21;;;;;;;;;;;;;;;;;;5081982;28;19973;-73
2024/01/21 11:41:48;;;;;;;;;;;;;;;;;;5071588;28;19925;-74
2024/01/21 11:44:14;;;;;;;;;;;;;;;;;;5072536;28;19932;-72
2024/01/21 11:46:41;;;;;;;;;;;;;;;;;;5074044;28;20019;-75
2024/01/21 11:49:08;;;;;;;;;;;;;;;;;;5080415;28;20331;-74
2024/01/21 11:51:34;;;;;;;;;;;;;;;;;;5056059;28;19928;-74
2024/01/21 11:54:01;;;;;;;;;;;;;;;;;;5068513;28;20395;-74
2024/01/21 11:56:27;;;;;;;;;;;;;;;;;;5073199;28;20023;-74
2024/01/21 11:58:53;;;;;;;;;;;;;;;;;;5074749;28;19930;-75
2024/01/21 12:01:20;;;;;;;;;;;;;;;;;;5079040;28;19924;-77
2024/01/21 12:03:47;;;;;;;;;;;;;;;;;;5065294;28;19924;-74
2024/01/21 12:06:13;;;;;;;;;;;;;;;;;;5078209;28;19935;-76
2024/01/21 12:08:43;;;;;;;;;;;;;;;;;;5073197;28;20010;-74
2024/01/21 12:11:09;;;;;;;;;;;;;;;;;;5080499;28;20000;-75
2024/01/21 12:13:36;;;;;;;;;;;;;;;;;;5063863;28;19932;-75
2024/01/21 12:16:03;;;;;;;;;;;;;;;;;;5075581;28;19935;-74
2024/01/21 12:18:29;;;;;;;;;;;;;;;;;;5072202;28;19925;-73
2024/01/21 12:20:56;;;;;;;;;;;;;;;;;;5082510;28;19924;-76
2024/01/21 12:23:22;;;;;;;;;;;;;;;;;;5065856;28;19931;-75
2024/01/21 12:25:49;;;;;;;;;;;;;;;;;;5061248;28;19978;-76
2024/01/21 12:28:17;;;;;;;;;;;;;;;;;;5072242;28;19925;-74
2024/01/21 12:30:43;;;;;;;;;;;;;;;;;;5081445;28;20366;-75
2024/01/21 12:33:10;;;;;;;;;;;;;;;;;;5067684;28;19924;-76
2024/01/21 12:35:36;;;;;;;;;;;;;;;;;;5076890;28;20301;-76
2024/01/21 12:38:03;;;;;;;;;;;;;;;;;;5073979;28;20297;-74
2024/01/21 12:40:29;;;;;;;;;;;;;;;;;;5077628;28;19962;-76
2024/01/21 12:42:56;;;;;;;;;;;;;;;;;;5057589;28;19928;-76
2024/01/21 12:45:22;;;;;;;;;;;;;;;;;;5075077;28;19970;-75
2024/01/21 12:47:49;;;;;;;;;;;;;;;;;;5079563;28;19928;-74
2024/01/21 12:50:15;;;;;;;;;;;;;;;;;;5081381;28;20304;-76
2024/01/21 12:52:41;;;;;;;;;;;;;;;;;;5074506;28;19931;-76
2024/01/21 12:55:08;;;;;;;;;;;;;;;;;;5057765;28;19980;-76
2024/01/21 12:57:34;;;;;;;;;;;;;;;;;;5083981;28;20442;-74
2024/01/21 13:00:01;;;;;;;;;;;;;;;;;;5084137;28;19928;-76
2024/01/21 13:02:28;;;;;;;;;;;;;;;;;;5053290;28;19929;-75
2024/01/21 13:04:54;;;;;;;;;;;;;;;;;;5068413;28;19960;-76
2024/01/21 13:07:21;;;;;;;;;;;;;;;;;;5075043;28;19974;-75
2024/01/21 13:09:47;;;;;;;;;;;;;;;;;;5079813;28;19970;-74
2024/01/21 13:12:14;;;;;;;;;;;;;;;;;;5086330;28;19931;-74
2024/01/21 13:14:40;;;;;;;;;;;;;;;;;;5073115;28;19931;-75
2024/01/21 13:17:06;;;;;;;;;;;;;;;;;;5082349;28;19930;-76
2024/01/21 13:19:33;;;;;;;;;;;;;;;;;;5081795;28;19932;-74
2024/01/21 13:22:05;;;;;;;;;;;;;;;;;;5081698;28;20445;-75
2024/01/21 13:24:31;;;;;;;;;;;;;;;;;;5074096;28;19928;-75
2024/01/21 13:27:07;;;;;;;;;;;;;;;;;;5077784;28;19969;-74
2024/01/21 13:32:19;;;;;;;;;;;;;;;;;;5078180;28;19959;-75
2024/01/21 13:34:45;;;;;;;;;;;;;;;;;;5071323;28;19933;-74
2024/01/21 13:37:12;;;;;;;;;;;;;;;;;;5070402;28;20371;-74
2024/01/21 13:39:39;;;;;;;;;;;;;;;;;;5083170;28;19924;-75
2024/01/21 13:42:06;;;;;;;;;;;;;;;;;;5078261;28;19924;-77
2024/01/21 13:44:32;;;;;;;;;;;;;;;;;;5076658;28;19928;-76
2024/01/21 13:47:00;;;;;;;;;;;;;;;;;;5075828;28;19952;-74
2024/01/21 13:49:26;;;;;;;;;;;;;;;;;;5078324;28;20420;-75
2024/01/21 13:51:54;;;;;;;;;;;;;;;;;;5079462;28;20403;-73
2024/01/21 13:54:20;;;;;;;;;;;;;;;;;;5072957;28;19931;-74
2024/01/21 13:56:47;;;;;;;;;;;;;;;;;;5073389;28;19931;-75
2024/01/21 13:59:13;;;;;;;;;;;;;;;;;;5083478;28;20389;-74
2024/01/21 14:01:40;;;;;;;;;;;;;;;;;;5080197;28;20013;-75
2024/01/21 14:04:09;;;;;;;;;;;;;;;;;;5070240;28;19925;-73
2024/01/21 14:06:36;;;;;;;;;;;;;;;;;;5069305;28;20354;-74
2024/01/21 14:09:03;;;;;;;;;;;;;;;;;;5070185;28;19928;-76
2024/01/21 14:11:29;;;;;;;;;;;;;;;;;;5082404;28;19930;-74
2024/01/21 14:13:55;;;;;;;;;;;;;;;;;;5075221;28;20369;-74
2024/01/21 14:16:22;;;;;;;;;;;;;;;;;;5073573;28;19931;-77
2024/01/21 14:18:48;;;;;;;;;;;;;;;;;;5074415;28;19924;-76
2024/01/21 14:21:15;;;;;;;;;;;;;;;;;;5084993;28;19931;-74
2024/01/21 14:23:41;;;;;;;;;;;;;;;;;;5078529;28;20875;-74
2024/01/21 14:26:09;;;;;;;;;;;;;;;;;;5070733;28;19938;-77
2024/01/21 14:28:35;;;;;;;;;;;;;;;;;;5075322;28;19933;-75
2024/01/21 14:31:02;;;;;;;;;;;;;;;;;;5076005;28;19951;-73
2024/01/21 14:33:28;;;;;;;;;;;;;;;;;;5076042;28;19925;-74
2024/01/21 14:35:54;;;;;;;;;;;;;;;;;;5075370;28;20384;-74
2024/01/21 14:38:21;;;;;;;;;;;;;;;;;;5069475;28;19931;-74
2024/01/21 14:40:47;;;;;;;;;;;;;;;;;;5078935;28;20343;-74
2024/01/21 14:43:13;;;;;;;;;;;;;;;;;;5074244;28;19932;-75
2024/01/21 14:45:40;;;;;;;;;;;;;;;;;;5056014;28;19966;-74
2024/01/21 14:48:08;;;;;;;;;;;;;;;;;;5067980;28;19930;-75
2024/01/21 14:50:35;;;;;;;;;;;;;;;;;;5073728;28;19928;-74
2024/01/21 14:53:01;;;;;;;;;;;;;;;;;;5076522;28;19928;-74
2024/01/21 14:55:30;;;;;;;;;;;;;;;;;;5071738;28;19924;-74
2024/01/21 14:57:59;;;;;;;;;;;;;;;;;;5068105;28;19929;-76
2024/01/21 15:00:25;;;;;;;;;;;;;;;;;;5076113;28;19928;-75
2024/01/21 15:02:52;;;;;;;;;;;;;;;;;;5082745;28;20023;-75
2024/01/21 15:05:18;;;;;;;;;;;;;;;;;;5067960;28;19925;-74
2024/01/21 15:07:45;;;;;;;;;;;;;;;;;;5069230;28;20380;-75
2024/01/21 15:10:14;;;;;;;;;;;;;;;;;;5068557;28;19930;-74
2024/01/21 15:12:40;;;;;;;;;;;;;;;;;;5079010;28;20345;-73
2024/01/21 15:15:07;;;;;;;;;;;;;;;;;;5076079;28;19968;-77
2024/01/21 15:17:33;;;;;;;;;;;;;;;;;;5073622;28;19963;-73
2024/01/21 15:20:00;;;;;;;;;;;;;;;;;;5073704;28;19935;-73
2024/01/21 15:22:26;;;;;;;;;;;;;;;;;;5081279;28;19935;-75
2024/01/21 15:24:53;;;;;;;;;;;;;;;;;;5081941;28;19930;-73
2024/01/21 15:27:21;;;;;;;;;;;;;;;;;;5062706;28;20382;-73
2024/01/21 15:29:47;;;;;;;;;;;;;;;;;;5071546;28;20015;-73
2024/01/21 15:32:14;;;;;;;;;;;;;;;;;;5077149;28;19925;-74
2024/01/21 15:34:40;;;;;;;;;;;;;;;;;;5081495;28;20274;-74
2024/01/21 15:37:06;;;;;;;;;;;;;;;;;;5070597;28;19934;-78
2024/01/21 15:39:33;;;;;;;;;;;;;;;;;;5073474;28;19931;-74
2024/01/21 15:42:01;;;;;;;;;;;;;;;;;;5074088;28;20403;-73
2024/01/21 15:44:27;;;;;;;;;;;;;;;;;;5085856;28;19963;-72
2024/01/21 15:46:54;;;;;;;;;;;;;;;;;;5067024;28;19928;-72
2024/01/21 15:49:20;;;;;;;;;;;;;;;;;;5078292;28;19925;-73
2024/01/21 15:51:47;;;;;;;;;;;;;;;;;;5069226;28;20015;-72
2024/01/21 15:54:14;;;;;;;;;;;;;;;;;;5080158;28;19981;-75
2024/01/21 15:56:41;;;;;;;;;;;;;;;;;;5071032;28;19928;-73
2024/01/21 15:59:07;;;;;;;;;;;;;;;;;;5068139;28;19925;-76
2024/01/21 16:01:33;;;;;;;;;;;;;;;;;;5074447;28;19948;-73
2024/01/21 16:04:00;;;;;;;;;;;;;;;;;;5079910;28;19924;-74
2024/01/21 16:06:26;;;;;;;;;;;;;;;;;;5089014;28;19934;-76
2024/01/21 16:08:53;;;;;;;;;;;;;;;;;;5073719;28;20386;-73
2024/01/21 16:11:20;;;;;;;;;;;;;;;;;;5077612;28;19925;-74
2024/01/21 16:13:46;;;;;;;;;;;;;;;;;;5070431;28;19929;-75
2024/01/21 16:16:14;;;;;;;;;;;;;;;;;;5073646;28;19971;-73
2024/01/21 16:18:40;;;;;;;;;;;;;;;;;;5059551;28;19964;-74
2024/01/21 16:21:07;;;;;;;;;;;;;;;;;;5081449;28;20400;-74
2024/01/21 16:23:33;;;;;;;;;;;;;;;;;;5072309;28;20000;-72
2024/01/21 16:26:00;;;;;;;;;;;;;;;;;;5086686;28;19932;-73
2024/01/21 16:28:26;;;;;;;;;;;;;;;;;;5066449;28;19951;-72
2024/01/21 16:30:52;;;;;;;;;;;;;;;;;;5080361;28;19928;-72
2024/01/21 16:33:22;;;;;;;;;;;;;;;;;;5074376;28;19991;-72
2024/01/21 16:35:48;;;;;;;;;;;;;;;;;;5080648;28;19927;-73
2024/01/21 16:38:15;;;;;;;;;;;;;;;;;;5082992;28;19931;-74
2024/01/21 16:40:41;;;;;;;;;;;;;;;;;;5071360;28;19932;-73
2024/01/21 16:43:08;;;;;;;;;;;;;;;;;;5077136;28;19925;-73